createdAt,value
2022-12-16T00:01:23.783Z,99176.19
2022-12-16T00:03:55.216Z,99167.72
2022-12-16T00:06:24.362Z,99178.63
2022-12-16T00:08:52.266Z,99175.72
2022-12-16T00:11:21.419Z,99185.44
2022-12-16T00:13:49.170Z,99183.38
2022-12-16T00:16:19.248Z,99173.13
2022-12-16T00:18:47.939Z,99173.09
2022-12-16T00:21:15.719Z,99163.59
2022-12-16T00:23:43.552Z,99171.13
2022-12-16T00:26:11.862Z,99174.31
2022-12-16T00:28:41.243Z,99173.31
2022-12-16T00:31:09.156Z,99176.88
2022-12-16T00:33:36.965Z,99177.59
2022-12-16T00:36:04.954Z,99176.13
2022-12-16T00:38:32.576Z,99181.69
2022-12-16T00:41:00.161Z,99169.78
2022-12-16T00:43:27.805Z,99176.53
2022-12-16T00:45:57.213Z,99169.78
2022-12-16T00:48:25.552Z,99167.16
2022-12-16T00:50:55.581Z,99158.19
2022-12-16T00:53:25.004Z,99164.16
2022-12-16T00:55:52.858Z,99165.81
2022-12-16T00:58:21.366Z,99172.81
2022-12-16T01:00:48.959Z,99169.78
2022-12-16T01:03:21.493Z,99171.97
2022-12-16T01:05:50.132Z,99175.16
2022-12-16T01:08:18.240Z,99177.56
2022-12-16T01:10:51.840Z,99179.22
2022-12-16T01:13:22.138Z,99189.84
2022-12-16T01:15:49.932Z,99181.84
2022-12-16T01:18:22.694Z,99195.63
2022-12-16T01:20:51.387Z,99201.88
2022-12-16T01:23:19.655Z,99199.22
2022-12-16T01:25:51.703Z,99199.63
2022-12-16T01:28:19.277Z,99201.28
2022-12-16T01:30:46.934Z,99211.97
2022-12-16T01:33:14.492Z,99216.81
2022-12-16T01:35:55.161Z,99215.84
2022-12-16T01:38:23.748Z,99215.94
2022-12-16T01:40:52.021Z,99227.03
2022-12-16T01:43:24.165Z,99227.91
2022-12-16T01:45:53.489Z,99231.84
2022-12-16T01:48:28.640Z,99233.53
2022-12-16T01:51:02.857Z,99237.41
2022-12-16T01:53:31.644Z,99230.06
2022-12-16T01:56:01.297Z,99228.53
2022-12-16T01:58:32.600Z,99225.84
2022-12-16T02:01:02.198Z,99236.81
2022-12-16T02:03:33.230Z,99232.53
2022-12-16T02:06:03.741Z,99240.66
2022-12-16T02:08:31.546Z,99236.84
2022-12-16T02:11:13.035Z,99246.19
2022-12-16T02:13:56.865Z,99243.56
2022-12-16T02:16:33.221Z,99237.09
2022-12-16T02:19:10.780Z,99245.22
2022-12-16T02:21:49.708Z,99257.84
2022-12-16T02:24:53.544Z,99243.63
2022-12-16T02:27:55.080Z,99241.72
2022-12-16T02:30:43.214Z,99247.59
2022-12-16T02:33:22.083Z,99239.97
2022-12-16T02:35:55.631Z,99229.50
2022-12-16T02:38:28.809Z,99237.38
2022-12-16T02:41:02.264Z,99235.72
2022-12-16T02:43:49.257Z,99237.78
2022-12-16T02:46:18.736Z,99233.31
2022-12-16T02:48:46.293Z,99234.19
2022-12-16T02:51:14.143Z,99230.75
2022-12-16T02:53:43.131Z,99233.19
2022-12-16T02:56:26.110Z,99230.50
2022-12-16T02:59:04.975Z,99227.47
2022-12-16T03:01:40.300Z,99228.44
2022-12-16T03:04:13.536Z,99237.34
2022-12-16T03:06:46.252Z,99229.22
2022-12-16T03:09:17.420Z,99229.22
2022-12-16T03:11:46.443Z,99241.63
2022-12-16T03:14:19.371Z,99238.75
2022-12-16T03:16:51.334Z,99235.13
2022-12-16T03:19:22.650Z,99228.22
2022-12-16T03:21:56.253Z,99230.78
2022-12-16T03:24:25.172Z,99234.09
2022-12-16T03:27:02.587Z,99233.34
2022-12-16T03:29:37.954Z,99230.13
2022-12-16T03:32:13.736Z,99236.34
2022-12-16T03:34:45.909Z,99238.06
2022-12-16T03:37:14.658Z,99242.22
2022-12-16T03:39:46.913Z,99240.94
2022-12-16T03:42:16.413Z,99245.34
2022-12-16T03:44:44.641Z,99251.69
2022-12-16T03:47:17.045Z,99251.47
2022-12-16T03:49:47.533Z,99253.75
2022-12-16T03:52:15.671Z,99259.69
2022-12-16T03:54:43.436Z,99251.91
2022-12-16T03:57:15.378Z,99256.94
2022-12-16T03:59:43.347Z,99268.69
2022-12-16T04:02:11.260Z,99270.72
2022-12-16T04:04:40.341Z,99264.25
2022-12-16T04:07:28.285Z,99265.56
2022-12-16T04:09:55.859Z,99261.16
2022-12-16T04:12:40.919Z,99262.47
2022-12-16T04:15:32.513Z,99275.50
2022-12-16T04:18:17.864Z,99272.88
2022-12-16T04:21:08.309Z,99277.38
2022-12-16T04:23:55.434Z,99269.78
2022-12-16T04:26:23.963Z,99280.69
2022-12-16T04:28:51.525Z,99277.59
2022-12-16T04:31:26.935Z,99285.19
2022-12-16T04:34:12.358Z,99273.88
2022-12-16T04:36:58.911Z,99291.06
2022-12-16T04:39:44.491Z,99295.47
2022-12-16T04:42:29.694Z,99300.69
2022-12-16T04:45:15.380Z,99301.06
2022-12-16T04:48:00.918Z,99300.72
2022-12-16T04:50:46.261Z,99296.78
2022-12-16T04:53:33.466Z,99297.38
2022-12-16T04:56:33.711Z,99300.25
2022-12-16T04:59:19.058Z,99316.66
2022-12-16T05:02:04.445Z,99315.47
2022-12-16T05:04:49.929Z,99316.91
2022-12-16T05:07:38.465Z,99315.47
2022-12-16T05:10:26.700Z,99330.75
2022-12-16T05:13:13.135Z,99331.81
2022-12-16T05:15:59.133Z,99339.44
2022-12-16T05:18:44.359Z,99346.91
2022-12-16T05:21:29.676Z,99337.78
2022-12-16T05:24:15.120Z,99346.59
2022-12-16T05:27:01.830Z,99343.59
2022-12-16T05:29:47.307Z,99348.13
2022-12-16T05:32:33.080Z,99351.03
2022-12-16T05:35:18.174Z,99351.47
2022-12-16T05:38:05.884Z,99358.63
2022-12-16T05:40:51.103Z,99368.84
2022-12-16T05:43:37.788Z,99373.50
2022-12-16T05:46:23.447Z,99379.53
2022-12-16T05:49:08.849Z,99392.38
2022-12-16T05:51:54.151Z,99391.53
2022-12-16T05:54:39.311Z,99393.75
2022-12-16T05:57:24.624Z,99399.97
2022-12-16T06:00:14.661Z,99405.59
2022-12-16T06:02:59.919Z,99409.03
2022-12-16T06:05:45.462Z,99394.56
2022-12-16T06:08:32.884Z,99400.00
2022-12-16T06:11:18.065Z,99403.00
2022-12-16T06:14:03.552Z,99415.13
2022-12-16T06:16:50.222Z,99417.41
2022-12-16T06:19:35.664Z,99423.81
2022-12-16T06:22:20.722Z,99424.91
2022-12-16T06:25:05.827Z,99417.41
2022-12-16T06:27:51.152Z,99434.75
2022-12-16T06:30:36.203Z,99443.28
2022-12-16T06:33:22.511Z,99447.44
2022-12-16T06:36:07.930Z,99448.50
2022-12-16T06:38:53.090Z,99446.47
2022-12-16T06:41:39.651Z,99461.03
2022-12-16T06:44:25.150Z,99460.94
2022-12-16T06:47:10.519Z,99466.34
2022-12-16T06:49:57.344Z,99470.75
2022-12-16T06:52:42.287Z,99476.09
2022-12-16T06:55:27.731Z,99480.25
2022-12-16T06:58:16.384Z,99491.28
2022-12-16T07:01:02.917Z,99490.13
2022-12-16T07:03:48.473Z,99503.06
2022-12-16T07:06:35.459Z,99499.16
2022-12-16T07:09:20.994Z,99496.63
2022-12-16T07:12:06.462Z,99502.69
2022-12-16T07:14:51.474Z,99514.53
2022-12-16T07:17:36.867Z,99523.00
2022-12-16T07:20:22.994Z,99523.22
2022-12-16T07:23:13.290Z,99523.00
2022-12-16T07:26:01.551Z,99537.19
2022-12-16T07:28:47.015Z,99532.31
2022-12-16T07:31:32.225Z,99543.34
2022-12-16T07:34:17.889Z,99549.69
2022-12-16T07:37:03.302Z,99548.25
2022-12-16T07:39:54.576Z,99555.03
2022-12-16T07:42:40.405Z,99556.53
2022-12-16T07:45:26.773Z,99567.06
2022-12-16T07:48:11.971Z,99570.00
2022-12-16T07:50:59.965Z,99570.78
2022-12-16T07:53:46.001Z,99573.94
2022-12-16T07:56:32.992Z,99589.25
2022-12-16T07:59:20.058Z,99600.41
2022-12-16T08:02:06.943Z,99601.88
2022-12-16T08:04:52.353Z,99604.91
2022-12-16T08:07:37.792Z,99605.84
2022-12-16T08:10:23.893Z,99614.44
2022-12-16T08:13:10.078Z,99613.19
2022-12-16T08:15:55.356Z,99620.53
2022-12-16T08:18:42.612Z,99617.09
2022-12-16T08:21:27.756Z,99617.56
2022-12-16T08:24:13.289Z,99627.69
2022-12-16T08:26:58.397Z,99637.88
2022-12-16T08:29:45.705Z,99646.06
2022-12-16T08:32:31.206Z,99644.78
2022-12-16T08:35:16.212Z,99654.53
2022-12-16T08:38:01.570Z,99662.16
2022-12-16T08:40:46.983Z,99665.88
2022-12-16T08:43:32.672Z,99669.19
2022-12-16T08:46:19.590Z,99678.47
2022-12-16T08:49:04.849Z,99681.00
2022-12-16T08:51:50.134Z,99680.16
2022-12-16T08:54:37.872Z,99682.53
2022-12-16T08:57:22.935Z,99705.19
2022-12-16T09:00:08.469Z,99703.88
2022-12-16T09:02:56.514Z,99708.41
2022-12-16T09:05:41.728Z,99718.09
2022-12-16T09:08:27.364Z,99709.72
2022-12-16T09:11:12.581Z,99704.59
2022-12-16T09:13:59.280Z,99721.78
2022-12-16T09:16:44.444Z,99713.78
2022-12-16T09:19:31.309Z,99717.34
2022-12-16T09:22:16.983Z,99727.84
2022-12-16T09:25:02.208Z,99728.06
2022-12-16T09:27:47.684Z,99737.34
2022-12-16T09:30:32.988Z,99732.81
2022-12-16T09:33:21.224Z,99730.16
2022-12-16T09:36:07.915Z,99725.59
2022-12-16T09:38:53.161Z,99732.44
2022-12-16T09:42:00.871Z,99733.53
2022-12-16T09:44:59.669Z,99732.56
2022-12-16T09:47:49.757Z,99731.09
2022-12-16T09:50:40.203Z,99741.50
2022-12-16T09:53:31.460Z,99737.06
2022-12-16T09:56:19.398Z,99743.38
2022-12-16T09:59:12.538Z,99746.53
2022-12-16T10:01:58.626Z,99734.56
2022-12-16T10:04:44.410Z,99740.16
2022-12-16T10:07:36.400Z,99741.16
2022-12-16T10:10:36.320Z,99747.81
2022-12-16T10:13:32.572Z,99741.81
2022-12-16T10:16:29.190Z,99740.16
2022-12-16T10:19:22.946Z,99743.34
2022-12-16T10:22:16.523Z,99751.72
2022-12-16T10:25:12.991Z,99746.41
2022-12-16T10:28:03.583Z,99751.97
2022-12-16T10:30:50.499Z,99748.59
2022-12-16T10:33:38.881Z,99757.63
2022-12-16T10:36:32.150Z,99764.72
2022-12-16T10:39:21.339Z,99763.25
2022-12-16T10:42:12.940Z,99765.47
2022-12-16T10:45:07.458Z,99761.75
2022-12-16T10:47:52.699Z,99766.09
2022-12-16T10:50:39.170Z,99764.91
2022-12-16T10:53:31.867Z,99781.13
2022-12-16T10:56:30.517Z,99774.00
2022-12-16T10:59:20.086Z,99769.69
2022-12-16T11:02:15.935Z,99776.91
2022-12-16T11:05:01.560Z,99768.94
2022-12-16T11:07:51.478Z,99769.56
2022-12-16T11:10:52.433Z,99771.91
2022-12-16T11:13:42.238Z,99777.38
2022-12-16T11:16:35.790Z,99769.44
2022-12-16T11:19:31.514Z,99764.72
2022-12-16T11:22:25.563Z,99773.72
2022-12-16T11:25:24.119Z,99773.19
2022-12-16T11:28:09.423Z,99778.38
2022-12-16T11:30:55.147Z,99778.47
2022-12-16T11:33:44.738Z,99785.91
2022-12-16T11:36:34.789Z,99776.34
2022-12-16T11:39:20.650Z,99786.81
2022-12-16T11:42:08.124Z,99781.56
2022-12-16T11:44:59.112Z,99787.13
2022-12-16T11:47:55.067Z,99784.81
2022-12-16T11:50:43.663Z,99787.97
2022-12-16T11:53:50.755Z,99789.25
2022-12-16T11:56:41.173Z,99796.22
2022-12-16T11:59:37.299Z,99793.88
2022-12-16T12:02:31.390Z,99797.19
2022-12-16T12:05:17.033Z,99798.03
2022-12-16T12:08:12.622Z,99800.38
2022-12-16T12:11:12.088Z,99804.00
2022-12-16T12:14:10.446Z,99810.22
2022-12-16T12:17:07.491Z,99808.06
2022-12-16T12:20:02.153Z,99812.34
2022-12-16T12:22:54.587Z,99811.63
2022-12-16T12:25:46.832Z,99813.56
2022-12-16T12:28:46.772Z,99818.50
2022-12-16T12:31:48.595Z,99818.22
2022-12-16T12:34:41.691Z,99826.28
2022-12-16T12:37:33.781Z,99826.81
2022-12-16T12:40:29.308Z,99821.09
2022-12-16T12:43:15.287Z,99824.28
2022-12-16T12:46:15.398Z,99828.63
2022-12-16T12:49:07.690Z,99829.78
2022-12-16T12:52:01.823Z,99839.94
2022-12-16T12:54:56.475Z,99834.91
2022-12-16T12:57:46.278Z,99843.59
2022-12-16T13:00:35.924Z,99838.75
2022-12-16T13:03:32.449Z,99853.13
2022-12-16T13:06:18.759Z,99850.91
2022-12-16T13:09:28.662Z,99854.75
2022-12-16T13:12:42.031Z,99856.91
2022-12-16T13:15:29.161Z,99852.91
2022-12-16T13:18:50.786Z,99861.34
2022-12-16T13:22:11.344Z,99870.78
2022-12-16T13:25:03.222Z,99866.63
2022-12-16T13:28:03.952Z,99866.69
2022-12-16T13:30:52.181Z,99865.56
2022-12-16T13:33:44.114Z,99870.59
2022-12-16T13:36:31.030Z,99868.59
2022-12-16T13:39:25.960Z,99869.81
2022-12-16T13:42:18.511Z,99882.31
2022-12-16T13:45:17.865Z,99877.16
2022-12-16T13:48:21.091Z,99891.47
2022-12-16T13:51:09.119Z,99896.59
2022-12-16T13:54:01.486Z,99893.75
2022-12-16T13:56:53.504Z,99902.88
2022-12-16T13:59:41.906Z,99898.13
2022-12-16T14:02:50.448Z,99902.16
2022-12-16T14:05:40.891Z,99902.31
2022-12-16T14:08:32.791Z,99914.13
2022-12-16T14:11:20.696Z,99912.91
2022-12-16T14:14:14.782Z,99917.00
2022-12-16T14:17:09.377Z,99922.88
2022-12-16T14:20:05.003Z,99923.78
2022-12-16T14:23:07.521Z,99926.47
2022-12-16T14:25:53.724Z,99931.53
2022-12-16T14:28:46.736Z,99941.81
2022-12-16T14:31:40.071Z,99938.06
2022-12-16T14:34:34.000Z,99946.19
2022-12-16T14:37:24.076Z,99951.72
2022-12-16T14:40:11.205Z,99952.69
2022-12-16T14:43:07.183Z,99954.97
2022-12-16T14:45:55.605Z,99959.41
2022-12-16T14:48:49.581Z,99966.66
2022-12-16T14:51:47.024Z,99958.06
2022-12-16T14:54:43.662Z,99972.19
2022-12-16T14:57:34.787Z,99967.09
2022-12-16T15:00:23.270Z,99969.03
2022-12-16T15:03:10.660Z,99970.13
2022-12-16T15:05:59.001Z,99978.16
2022-12-16T15:08:47.204Z,99979.28
2022-12-16T15:11:38.351Z,99991.56
2022-12-16T15:14:25.389Z,99989.94
2022-12-16T15:17:12.221Z,99997.41
2022-12-16T15:20:03.556Z,100001.31
2022-12-16T15:22:53.172Z,100001.00
2022-12-16T15:25:42.442Z,100002.06
2022-12-16T15:28:43.344Z,100021.44
2022-12-16T15:31:33.551Z,100017.53
2022-12-16T15:34:44.820Z,100029.94
2022-12-16T15:37:48.380Z,100030.19
2022-12-16T15:40:53.801Z,100034.84
2022-12-16T15:43:41.730Z,100037.22
2022-12-16T15:46:37.069Z,100042.63
2022-12-16T15:49:22.943Z,100037.72
2022-12-16T15:52:09.400Z,100040.69
2022-12-16T15:55:10.157Z,100038.06
2022-12-16T15:57:58.067Z,100043.69
2022-12-16T16:00:45.651Z,100053.09
2022-12-16T16:03:40.597Z,100051.91
2022-12-16T16:06:35.138Z,100063.13
2022-12-16T16:09:20.846Z,100065.69
2022-12-16T16:12:06.608Z,100060.88
2022-12-16T16:14:52.985Z,100072.47
2022-12-16T16:17:40.328Z,100062.44
2022-12-16T16:20:31.826Z,100067.81
2022-12-16T16:23:17.302Z,100071.53
2022-12-16T16:26:04.200Z,100074.13
2022-12-16T16:28:49.320Z,100075.81
2022-12-16T16:31:36.871Z,100081.91
2022-12-16T16:34:22.206Z,100086.16
2022-12-16T16:37:12.223Z,100087.53
2022-12-16T16:39:57.743Z,100088.81
2022-12-16T16:42:39.598Z,100092.38
2022-12-16T16:45:25.218Z,100098.94
2022-12-16T16:48:20.734Z,100107.56
2022-12-16T16:51:05.959Z,100109.13
2022-12-16T16:53:51.705Z,100108.88
2022-12-16T16:56:37.158Z,100105.53
2022-12-16T16:59:23.561Z,100111.38
2022-12-16T17:02:09.143Z,100122.56
2022-12-16T17:04:55.692Z,100123.16
2022-12-16T17:07:41.089Z,100129.50
2022-12-16T17:10:27.090Z,100128.22
2022-12-16T17:13:13.413Z,100131.06
2022-12-16T17:15:58.732Z,100135.59
2022-12-16T17:18:47.768Z,100136.25
2022-12-16T17:21:37.350Z,100140.09
2022-12-16T17:24:22.404Z,100150.50
2022-12-16T17:27:08.286Z,100142.56
2022-12-16T17:29:53.652Z,100145.97
2022-12-16T17:32:39.298Z,100158.19
2022-12-16T17:35:24.844Z,100158.66
2022-12-16T17:38:11.499Z,100165.41
2022-12-16T17:40:56.567Z,100171.56
2022-12-16T17:43:42.415Z,100177.81
2022-12-16T17:46:29.900Z,100174.84
2022-12-16T17:49:17.228Z,100178.25
2022-12-16T17:52:02.834Z,100175.81
2022-12-16T17:54:49.469Z,100181.94
2022-12-16T17:57:36.072Z,100182.84
2022-12-16T18:00:22.145Z,100187.09
2022-12-16T18:03:06.971Z,100180.75
2022-12-16T18:05:54.856Z,100191.69
2022-12-16T18:08:41.709Z,100193.88
2022-12-16T18:11:28.543Z,100203.94
2022-12-16T18:14:15.141Z,100207.75
2022-12-16T18:16:56.687Z,100206.56
2022-12-16T18:19:42.207Z,100200.63
2022-12-16T18:22:27.279Z,100207.63
2022-12-16T18:25:12.658Z,100220.28
2022-12-16T18:27:59.044Z,100213.75
2022-12-16T18:30:44.131Z,100221.56
2022-12-16T18:33:35.229Z,100217.31
2022-12-16T18:36:21.013Z,100220.53
2022-12-16T18:39:06.318Z,100222.47
2022-12-16T18:41:51.773Z,100234.22
2022-12-16T18:44:38.444Z,100228.56
2022-12-16T18:47:23.996Z,100237.56
2022-12-16T18:50:09.381Z,100243.94
2022-12-16T18:52:54.395Z,100252.25
2022-12-16T18:55:39.828Z,100254.25
2022-12-16T18:58:50.287Z,100253.81
2022-12-16T19:01:34.840Z,100254.25
2022-12-16T19:04:20.285Z,100254.16
2022-12-16T19:07:05.735Z,100263.63
2022-12-16T19:09:52.982Z,100261.63
2022-12-16T19:12:38.494Z,100266.34
2022-12-16T19:15:24.766Z,100277.00
2022-12-16T19:18:11.431Z,100283.44
2022-12-16T19:20:56.995Z,100284.91
2022-12-16T19:23:42.223Z,100278.41
2022-12-16T19:26:27.722Z,100301.50
2022-12-16T19:29:13.192Z,100290.78
2022-12-16T19:31:58.405Z,100299.59
2022-12-16T19:34:45.167Z,100300.75
2022-12-16T19:37:30.642Z,100303.28
2022-12-16T19:40:15.906Z,100307.06
2022-12-16T19:43:01.426Z,100315.47
2022-12-16T19:45:46.826Z,100310.00
2022-12-16T19:48:32.195Z,100317.56
2022-12-16T19:51:20.497Z,100327.63
2022-12-16T19:54:06.282Z,100321.78
2022-12-16T19:56:57.588Z,100329.94
2022-12-16T19:59:42.957Z,100324.28
2022-12-16T20:02:30.319Z,100332.59
2022-12-16T20:05:16.247Z,100330.25
2022-12-16T20:08:02.704Z,100342.09
2022-12-16T20:10:48.012Z,100341.13
2022-12-16T20:13:33.696Z,100344.44
2022-12-16T20:16:22.597Z,100346.34
2022-12-16T20:19:08.120Z,100354.59
2022-12-16T20:22:07.051Z,100359.13
2022-12-16T20:28:00.556Z,100364.75
2022-12-16T20:30:46.050Z,100376.63
2022-12-16T20:33:32.983Z,100372.81
2022-12-16T20:36:20.069Z,100374.38
2022-12-16T20:39:05.617Z,100379.03
2022-12-16T20:41:52.179Z,100381.56
2022-12-16T20:44:37.594Z,100382.28
2022-12-16T20:47:24.136Z,100383.25
2022-12-16T20:50:11.668Z,100386.06
2022-12-16T20:52:57.037Z,100390.56
2022-12-16T20:55:42.600Z,100402.25
2022-12-16T20:58:29.368Z,100404.44
2022-12-16T21:01:14.907Z,100411.72
2022-12-16T21:04:00.437Z,100416.81
2022-12-16T21:06:45.696Z,100423.53
2022-12-16T21:09:31.026Z,100433.75
2022-12-16T21:12:16.525Z,100437.19
2022-12-16T21:15:02.930Z,100441.13
2022-12-16T21:17:48.422Z,100440.56
2022-12-16T21:20:34.095Z,100444.59
2022-12-16T21:23:20.427Z,100440.44
2022-12-16T21:26:05.829Z,100445.09
2022-12-16T21:28:48.064Z,100440.88
2022-12-16T21:31:34.612Z,100450.34
2022-12-16T21:34:20.001Z,100453.09
2022-12-16T21:37:05.613Z,100448.84
2022-12-16T21:39:51.117Z,100452.38
2022-12-16T21:42:41.056Z,100461.19
2022-12-16T21:45:29.748Z,100466.91
2022-12-16T21:48:16.263Z,100477.28
2022-12-16T21:51:01.630Z,100484.28
2022-12-16T21:53:47.618Z,100472.19
2022-12-16T21:56:32.972Z,100469.75
2022-12-16T21:59:18.784Z,100476.13
2022-12-16T22:02:04.698Z,100480.44
2022-12-16T22:04:51.068Z,100477.97
2022-12-16T22:07:36.815Z,100480.50
2022-12-16T22:10:37.576Z,100482.16
2022-12-16T22:13:22.920Z,100486.88
2022-12-16T22:16:13.958Z,100499.97
2022-12-16T22:18:59.641Z,100503.06
2022-12-16T22:21:46.633Z,100499.94
2022-12-16T22:24:32.683Z,100502.09
2022-12-16T22:27:19.254Z,100505.47
2022-12-16T22:30:03.749Z,100504.97
2022-12-16T22:32:49.552Z,100526.88
2022-12-16T22:35:34.477Z,100514.00
2022-12-16T22:38:21.078Z,100525.00
2022-12-16T22:41:12.564Z,100521.81
2022-12-16T22:43:57.637Z,100528.63
2022-12-16T22:46:42.901Z,100532.06
2022-12-16T22:49:30.221Z,100541.78
2022-12-16T22:52:15.469Z,100540.75
2022-12-16T22:55:02.523Z,100553.59
2022-12-16T22:57:47.898Z,100558.25
2022-12-16T23:00:34.502Z,100559.38
2022-12-16T23:03:24.927Z,100551.22
2022-12-16T23:06:10.289Z,100549.97
2022-12-16T23:08:55.738Z,100560.34
2022-12-16T23:11:50.242Z,100554.59
2022-12-16T23:14:42.569Z,100564.66
2022-12-16T23:17:29.126Z,100567.50
2022-12-16T23:20:14.636Z,100574.78
2022-12-16T23:22:59.769Z,100576.28
2022-12-16T23:25:45.434Z,100573.53
2022-12-16T23:28:32.122Z,100583.50
2022-12-16T23:31:17.520Z,100586.25
2022-12-16T23:34:02.814Z,100591.22
2022-12-16T23:36:48.388Z,100591.16
2022-12-16T23:39:33.768Z,100596.59
2022-12-16T23:42:19.139Z,100601.13
2022-12-16T23:45:05.641Z,100604.78
2022-12-16T23:47:51.029Z,100604.25
2022-12-16T23:50:37.114Z,100605.84
2022-12-16T23:53:23.169Z,100604.78
2022-12-16T23:56:08.675Z,100609.78
2022-12-16T23:58:53.806Z,100614.69
